Time;durP1;ratioP1;P1;durP2;ratioP2;P2;SDS_P1;SDS_P2;PMS_P1;PMS_P2;Temp;Humidity;BMP_temperature;BMP_pressure;BME280_temperature;BME280_humidity;BME280_pressure;Samples;Min_cycle;Max_cycle;Signal;HPM_P1;HPM_P2
2022/07/12 00:01:43;;;;;;;2.20;2.20;;;;;;;17.77;67.20;99757.03;5114989;28;20667;-69
2022/07/12 00:04:10;;;;;;;2.20;2.03;;;;;;;17.74;67.50;99757.19;5114876;28;20218;-69
2022/07/12 00:06:36;;;;;;;2.43;2.33;;;;;;;17.74;67.78;99770.16;5122410;27;20207;-69
2022/07/12 00:09:03;;;;;;;2.37;2.20;;;;;;;17.71;67.63;99767.75;5135519;27;20681;-68
2022/07/12 00:11:30;;;;;;;2.53;2.43;;;;;;;17.73;67.69;99765.91;5135301;27;20296;-69
2022/07/12 00:13:57;;;;;;;1.83;1.83;;;;;;;17.62;68.34;99763.06;5126594;27;20233;-69
2022/07/12 00:16:24;;;;;;;2.83;2.67;;;;;;;17.62;68.40;99768.22;5116680;27;20226;-69
2022/07/12 00:18:53;;;;;;;2.10;2.10;;;;;;;17.49;68.46;99751.63;5135115;27;20747;-69
2022/07/12 00:21:20;;;;;;;2.27;2.17;;;;;;;17.54;68.55;99764.34;5134942;27;20240;-69
2022/07/12 00:23:47;;;;;;;2.30;2.20;;;;;;;17.47;68.60;99769.03;5114392;28;20289;-68
2022/07/12 00:26:13;;;;;;;2.10;2.10;;;;;;;17.47;68.33;99774.19;5114602;28;20198;-68
2022/07/12 00:28:40;;;;;;;2.07;2.07;;;;;;;17.46;68.32;99777.69;5114501;27;20666;-69
2022/07/12 00:31:08;;;;;;;2.10;2.00;;;;;;;17.47;68.25;99773.38;5114661;28;20686;-68
2022/07/12 00:33:35;;;;;;;2.63;2.53;;;;;;;17.32;67.48;99755.09;5132858;27;20209;-69
2022/07/12 00:36:04;;;;;;;2.53;2.43;;;;;;;17.43;67.42;99767.50;5123646;27;20215;-70
2022/07/12 00:38:31;;;;;;;4.97;2.60;;;;;;;17.49;66.95;99776.69;5131929;27;20202;-69
2022/07/12 00:40:57;;;;;;;2.20;2.10;;;;;;;17.55;66.77;99779.84;5134575;27;20210;-69
2022/07/12 00:43:24;;;;;;;3.07;2.67;;;;;;;17.58;66.46;99777.09;5134737;27;20281;-69
2022/07/12 00:45:51;;;;;;;3.27;2.60;;;;;;;17.56;66.04;99765.97;5114191;27;20202;-69
2022/07/12 00:48:18;;;;;;;2.67;2.57;;;;;;;17.67;65.90;99776.59;5120803;27;20225;-69
2022/07/12 00:50:48;;;;;;;2.87;2.73;;;;;;;17.63;65.58;99754.38;5124675;27;20224;-68
2022/07/12 00:53:23;;;;;;;2.60;2.50;;;;;;;17.74;65.50;99767.56;5134447;27;20202;-68
2022/07/12 00:55:53;;;;;;;2.23;2.07;;;;;;;17.68;64.90;99773.09;5132652;27;20661;-68
2022/07/12 00:58:22;;;;;;;2.63;2.43;;;;;;;17.61;65.14;99761.38;5120620;27;20198;-68
2022/07/12 01:00:49;;;;;;;2.00;2.00;;;;;;;17.60;65.04;99770.09;5113665;28;20289;-68
2022/07/12 01:03:16;;;;;;;2.33;2.23;;;;;;;17.54;65.32;99770.38;5119128;27;20198;-69
2022/07/12 01:05:45;;;;;;;2.63;2.30;;;;;;;17.52;65.70;99776.53;5126320;27;20675;-68
2022/07/12 01:08:13;;;;;;;2.20;2.10;;;;;;;17.47;65.67;99774.19;5133819;27;20266;-68
2022/07/12 01:10:44;;;;;;;1.70;1.70;;;;;;;17.46;65.83;99769.94;5133988;27;20202;-68
2022/07/12 01:13:11;;;;;;;1.73;1.70;;;;;;;17.36;66.17;99760.09;5114069;28;20207;-68
2022/07/12 01:15:38;;;;;;;2.10;2.10;;;;;;;17.44;66.66;99773.53;5121284;27;20680;-68
2022/07/12 01:18:05;;;;;;;2.00;2.00;;;;;;;17.41;67.11;99777.13;5133697;27;20275;-68
2022/07/12 01:20:33;;;;;;;2.10;2.00;;;;;;;17.36;67.50;99771.31;5127658;27;20200;-68
2022/07/12 01:23:02;;;;;;;2.30;2.20;;;;;;;17.35;67.69;99777.41;5122204;27;20202;-68
2022/07/12 01:25:29;;;;;;;2.43;2.20;;;;;;;17.32;67.24;99760.28;5119249;27;20617;-68
2022/07/12 01:27:56;;;;;;;1.60;1.60;;;;;;;17.24;67.77;99746.06;5122804;27;20206;-69
2022/07/12 01:30:23;;;;;;;8.07;1.80;;;;;;;17.31;67.97;99770.75;5123509;27;20585;-68
2022/07/12 01:32:51;;;;;;;2.70;2.50;;;;;;;17.29;68.08;99769.94;5123530;27;20680;-68
2022/07/12 01:35:18;;;;;;;2.00;2.00;;;;;;;17.26;68.41;99770.13;5115162;27;20198;-68
2022/07/12 01:37:46;;;;;;;2.03;2.03;;;;;;;17.24;68.61;99771.97;5112861;28;20226;-68
2022/07/12 01:40:16;;;;;;;2.30;2.20;;;;;;;17.17;69.02;99770.59;5112828;28;20271;-68
2022/07/12 01:42:44;;;;;;;2.00;2.00;;;;;;;17.13;69.23;99753.53;5126929;27;20206;-68
2022/07/12 01:45:12;;;;;;;2.43;2.30;;;;;;;17.18;69.48;99764.50;5129597;27;20197;-68
2022/07/12 01:47:40;;;;;;;3.47;2.13;;;;;;;17.15;69.89;99760.31;5125951;27;20290;-68
2022/07/12 01:50:08;;;;;;;2.30;2.20;;;;;;;17.08;70.00;99758.97;5133447;27;20228;-69
2022/07/12 01:52:36;;;;;;;2.10;2.00;;;;;;;17.11;70.53;99760.56;5123426;27;20203;-69
2022/07/12 01:55:03;;;;;;;1.83;1.83;;;;;;;17.07;70.14;99746.91;5133268;27;20248;-68
2022/07/12 01:57:34;;;;;;;2.10;2.00;;;;;;;17.12;70.22;99770.00;5131587;27;20213;-68
2022/07/12 02:00:02;;;;;;;2.10;2.00;;;;;;;17.07;70.47;99765.03;5126032;27;20194;-69
2022/07/12 02:02:30;;;;;;;1.80;1.80;;;;;;;16.96;70.73;99769.09;5132790;27;20212;-68
2022/07/12 02:04:58;;;;;;;2.30;2.20;;;;;;;16.98;70.48;99764.66;5119961;27;20214;-69
2022/07/12 02:07:25;;;;;;;2.30;2.20;;;;;;;16.90;70.51;99764.25;5120839;27;20199;-68
2022/07/12 02:09:53;;;;;;;2.13;2.00;;;;;;;16.94;69.76;99773.50;5112640;28;20745;-68
2022/07/12 02:12:19;;;;;;;1.80;1.80;;;;;;;16.85;70.28;99758.44;5113981;28;20211;-66
2022/07/12 02:14:48;;;;;;;1.93;1.93;;;;;;;16.91;69.74;99773.66;5125712;27;20198;-68
2022/07/12 02:17:14;;;;;;;1.90;1.80;;;;;;;16.87;70.32;99778.16;5132971;27;20225;-68
2022/07/12 02:19:41;;;;;;;2.13;2.03;;;;;;;16.69;70.84;99759.19;5132837;27;20209;-68
2022/07/12 02:22:08;;;;;;;2.93;2.63;;;;;;;16.81;70.72;99773.28;5116650;28;20201;-68
2022/07/12 02:24:35;;;;;;;2.23;2.13;;;;;;;16.72;70.78;99773.75;5127386;27;20220;-68
2022/07/12 02:27:02;;;;;;;2.53;2.43;;;;;;;16.78;71.23;99779.47;5127602;27;20191;-68
2022/07/12 02:29:29;;;;;;;2.20;2.10;;;;;;;16.70;71.46;99781.56;5112424;28;20206;-68
2022/07/12 02:31:57;;;;;;;4.03;2.70;;;;;;;16.56;71.76;99773.66;5123349;27;20206;-68
2022/07/12 02:34:24;;;;;;;2.73;2.63;;;;;;;16.56;72.39;99784.00;5124085;28;20656;-68
2022/07/12 02:36:50;;;;;;;3.50;3.30;;;;;;;16.57;72.23;99788.28;5132589;27;20231;-68
2022/07/12 02:39:17;;;;;;;3.13;2.93;;;;;;;16.47;72.63;99768.91;5133034;28;20586;-68
2022/07/12 02:41:44;;;;;;;4.13;3.03;;;;;;;16.50;74.03;99779.09;5132604;28;20217;-68
2022/07/12 02:44:11;;;;;;;3.53;2.77;;;;;;;16.51;73.49;99779.94;5119793;28;20589;-68
2022/07/12 02:46:38;;;;;;;3.30;3.20;;;;;;;16.51;73.38;99782.53;5129374;28;20631;-68
2022/07/12 02:49:06;;;;;;;2.37;2.27;;;;;;;16.54;73.47;99780.59;5113962;28;20198;-68
2022/07/12 02:51:33;;;;;;;3.93;2.47;;;;;;;16.51;73.46;99780.75;5117299;28;20202;-68
2022/07/12 02:54:00;;;;;;;4.60;2.87;;;;;;;16.56;73.53;99791.78;5123415;27;20202;-68
2022/07/12 02:56:27;;;;;;;4.70;3.23;;;;;;;16.64;72.67;99797.41;5127471;28;20201;-69
2022/07/12 02:58:54;;;;;;;3.27;3.07;;;;;;;16.75;72.48;99797.72;5131064;28;20207;-69
2022/07/12 03:01:21;;;;;;;3.70;3.40;;;;;;;16.79;71.46;99803.59;5125389;28;20659;-69
2022/07/12 03:03:48;;;;;;;3.40;3.20;;;;;;;16.85;71.29;99805.88;5113831;28;20700;-69
2022/07/12 03:06:16;;;;;;;3.23;2.93;;;;;;;16.88;71.17;99805.72;5111949;28;20202;-69
2022/07/12 03:08:43;;;;;;;2.80;2.60;;;;;;;16.90;70.95;99803.09;5113288;28;20191;-68
2022/07/12 03:11:10;;;;;;;2.90;2.70;;;;;;;16.87;70.49;99798.88;5125265;28;20202;-68
2022/07/12 03:13:37;;;;;;;2.90;2.70;;;;;;;16.94;70.72;99815.78;5133980;27;20661;-68
2022/07/12 03:16:04;;;;;;;2.00;2.00;;;;;;;16.91;70.78;99809.91;5135960;27;20198;-68
2022/07/12 03:18:31;;;;;;;4.27;2.50;;;;;;;16.87;71.15;99808.38;5130060;27;20594;-68
2022/07/12 03:20:58;;;;;;;2.77;2.67;;;;;;;16.83;71.05;99806.88;5124190;27;20762;-68
2022/07/12 03:23:26;;;;;;;2.60;2.50;;;;;;;16.76;71.28;99807.19;5127094;27;20663;-68
2022/07/12 03:25:54;;;;;;;3.00;2.40;;;;;;;16.77;71.29;99808.84;5128487;27;20201;-67
2022/07/12 03:28:21;;;;;;;2.57;2.47;;;;;;;16.77;70.86;99808.00;5124133;27;20214;-69
2022/07/12 03:30:48;;;;;;;2.87;2.53;;;;;;;16.69;71.76;99813.56;5115451;28;20206;-68
2022/07/12 03:33:15;;;;;;;3.60;2.73;;;;;;;16.60;71.77;99801.06;5130944;27;20673;-68
2022/07/12 03:35:41;;;;;;;2.63;2.53;;;;;;;16.58;71.93;99815.81;5127056;27;20194;-68
2022/07/12 03:38:08;;;;;;;2.50;2.40;;;;;;;16.54;72.16;99811.66;5132727;27;20218;-69
2022/07/12 03:40:36;;;;;;;2.93;2.83;;;;;;;16.49;71.49;99808.47;5130585;27;20578;-68
2022/07/12 03:43:03;;;;;;;2.70;2.50;;;;;;;16.47;72.37;99794.78;5128193;27;20206;-68
2022/07/12 03:45:30;;;;;;;2.30;2.20;;;;;;;16.60;71.14;99800.22;5126975;27;20658;-69
2022/07/12 03:47:57;;;;;;;2.40;2.30;;;;;;;16.74;71.94;99824.53;5124574;27;20222;-68
2022/07/12 03:50:24;;;;;;;2.80;2.67;;;;;;;16.84;71.69;99824.06;5115073;28;20198;-69
2022/07/12 03:52:51;;;;;;;2.37;2.10;;;;;;;16.93;70.92;99823.66;5115244;28;20201;-68
2022/07/12 03:55:18;;;;;;;2.23;2.10;;;;;;;17.09;70.48;99825.38;5123629;27;20202;-68
2022/07/12 03:57:46;;;;;;;2.33;2.20;;;;;;;17.22;69.41;99828.22;5116375;27;20214;-68
2022/07/12 04:00:14;;;;;;;5.57;2.93;;;;;;;17.29;69.63;99822.63;5118531;27;20593;-69
2022/07/12 04:02:42;;;;;;;2.57;2.47;;;;;;;17.29;69.59;99812.25;5129265;27;20245;-69
2022/07/12 04:05:10;;;;;;;2.60;2.50;;;;;;;17.56;69.58;99825.59;5131770;27;20198;-68
2022/07/12 04:07:37;;;;;;;2.60;2.40;;;;;;;17.81;69.37;99825.97;5131459;27;20190;-69
2022/07/12 04:10:05;;;;;;;4.40;2.70;;;;;;;18.06;68.51;99829.88;5130625;27;20212;-68
2022/07/12 04:12:32;;;;;;;2.73;2.53;;;;;;;18.17;66.21;99830.13;5125013;27;20198;-68
2022/07/12 04:15:01;;;;;;;4.70;2.63;;;;;;;18.21;66.79;99832.47;5114867;28;20213;-68
2022/07/12 04:17:27;;;;;;;2.43;2.33;;;;;;;18.21;66.26;99832.47;5124870;27;20217;-68
2022/07/12 04:19:54;;;;;;;2.60;2.40;;;;;;;18.27;66.72;99839.09;5132222;27;20209;-68
2022/07/12 04:22:21;;;;;;;4.30;2.47;;;;;;;18.38;65.51;99836.75;5124885;27;20680;-69
2022/07/12 04:24:48;;;;;;;2.50;2.33;;;;;;;18.49;67.01;99839.56;5124784;27;20195;-68
2022/07/12 04:27:15;;;;;;;2.57;2.47;;;;;;;18.62;66.29;99840.59;5114579;28;20210;-68
2022/07/12 04:29:41;;;;;;;2.30;2.20;;;;;;;18.70;64.68;99841.00;5121390;27;20205;-69
2022/07/12 04:32:10;;;;;;;2.30;2.17;;;;;;;18.73;64.05;99833.06;5121973;27;20209;-68
2022/07/12 04:34:36;;;;;;;2.57;2.47;;;;;;;18.92;64.86;99837.19;5134632;27;20202;-69
2022/07/12 04:37:04;;;;;;;2.67;2.57;;;;;;;19.07;64.47;99841.50;5116385;27;20697;-68
2022/07/12 04:39:30;;;;;;;2.27;2.17;;;;;;;19.27;65.26;99848.97;5117568;27;20208;-69
2022/07/12 04:41:57;;;;;;;2.63;2.53;;;;;;;19.56;62.27;99853.31;5121693;27;20208;-69
2022/07/12 04:44:24;;;;;;;4.93;2.60;;;;;;;19.82;64.10;99850.00;5117955;27;20211;-69
2022/07/12 04:46:51;;;;;;;1.93;1.83;;;;;;;20.25;64.11;99856.00;5120765;27;20222;-70
2022/07/12 04:49:19;;;;;;;2.90;2.10;;;;;;;20.58;62.41;99850.44;5133513;27;20199;-69
2022/07/12 04:51:46;;;;;;;2.20;2.10;;;;;;;20.91;61.00;99850.03;5134179;27;20209;-70
2022/07/12 04:54:13;;;;;;;4.63;1.97;;;;;;;21.15;60.94;99847.63;5134375;27;20203;-68
2022/07/12 04:56:40;;;;;;;1.97;1.97;;;;;;;21.29;56.19;99839.72;5134207;27;20555;-69
2022/07/12 04:59:06;;;;;;;1.90;1.80;;;;;;;21.45;58.39;99856.00;5133994;27;20220;-69
2022/07/12 05:01:33;;;;;;;3.03;1.67;;;;;;;21.39;55.28;99854.63;5134161;27;20209;-69
2022/07/12 05:04:00;;;;;;;1.67;1.50;;;;;;;21.47;55.32;99856.72;5126511;27;20201;-69
2022/07/12 05:06:28;;;;;;;1.30;1.30;;;;;;;21.54;56.78;99855.38;5133225;27;20194;-70
2022/07/12 05:08:55;;;;;;;3.03;1.77;;;;;;;21.71;55.73;99847.22;5125523;27;20205;-69
2022/07/12 05:11:22;;;;;;;1.67;1.67;;;;;;;21.92;55.72;99860.59;5134163;27;20202;-69
2022/07/12 05:13:49;;;;;;;1.90;1.90;;;;;;;22.03;54.13;99857.25;5128594;27;20256;-68
2022/07/12 05:16:16;;;;;;;6.83;1.70;;;;;;;22.13;53.72;99859.13;5124787;27;20195;-70
2022/07/12 05:18:43;;;;;;;4.67;1.53;;;;;;;22.39;54.68;99859.88;5127208;27;20590;-71
2022/07/12 05:21:10;;;;;;;2.23;1.73;;;;;;;22.67;51.55;99864.81;5115617;27;20190;-69
2022/07/12 05:23:38;;;;;;;1.60;1.60;;;;;;;22.76;51.84;99853.69;5119924;27;20194;-69
2022/07/12 05:26:05;;;;;;;1.60;1.57;;;;;;;23.08;52.32;99866.16;5122667;27;20737;-70
2022/07/12 05:28:32;;;;;;;1.40;1.40;;;;;;;23.16;51.98;99858.59;5126004;27;20280;-70
2022/07/12 05:30:59;;;;;;;7.13;1.93;;;;;;;23.25;50.20;99860.53;5133460;27;20206;-70
2022/07/12 05:33:26;;;;;;;1.60;1.50;;;;;;;23.35;51.16;99853.66;5133476;27;20198;-70
2022/07/12 05:35:53;;;;;;;2.10;1.50;;;;;;;23.60;51.20;99861.34;5133069;27;20587;-69
2022/07/12 05:38:20;;;;;;;3.70;1.40;;;;;;;23.86;51.38;99849.69;5133398;27;20213;-70
2022/07/12 05:40:48;;;;;;;1.27;1.23;;;;;;;24.14;48.49;99853.63;5121689;27;20559;-70
2022/07/12 05:43:16;;;;;;;1.47;1.47;;;;;;;24.31;48.80;99858.38;5124020;27;20593;-70
2022/07/12 05:45:43;;;;;;;1.47;1.37;;;;;;;24.42;48.81;99860.97;5124778;27;20194;-71
2022/07/12 05:48:10;;;;;;;2.77;1.47;;;;;;;24.59;50.11;99856.16;5117090;27;20602;-70
2022/07/12 05:50:37;;;;;;;1.53;1.43;;;;;;;24.81;47.95;99854.31;5127917;27;20717;-72
2022/07/12 05:55:55;;;;;;;1.73;1.20;;;;;;;24.77;47.32;99858.13;5107927;27;20217;-71
2022/07/12 05:58:22;;;;;;;3.03;1.97;;;;;;;24.85;48.19;99860.13;5125807;27;20222;-71
2022/07/12 06:00:49;;;;;;;1.50;1.50;;;;;;;25.07;45.68;99863.50;5132842;27;20197;-70
2022/07/12 06:03:16;;;;;;;1.13;1.13;;;;;;;25.13;44.96;99861.34;5131132;27;20202;-70
2022/07/12 06:05:43;;;;;;;1.30;1.20;;;;;;;25.33;46.85;99852.66;5130205;27;20205;-71
2022/07/12 06:08:10;;;;;;;1.57;1.33;;;;;;;25.51;46.83;99856.38;5127598;27;20198;-71
2022/07/12 06:10:37;;;;;;;1.30;1.30;;;;;;;25.65;46.74;99837.66;5128191;27;20658;-71
2022/07/12 06:13:05;;;;;;;1.57;1.57;;;;;;;25.96;43.95;99854.22;5120896;27;20197;-71
2022/07/12 06:15:32;;;;;;;1.20;1.20;;;;;;;26.16;44.22;99849.88;5115947;28;20209;-70
2022/07/12 06:17:59;;;;;;;1.30;1.20;;;;;;;26.18;45.68;99851.41;5132732;27;20223;-71
2022/07/12 06:20:26;;;;;;;1.27;1.27;;;;;;;26.36;44.06;99843.72;5132616;27;20217;-70
2022/07/12 06:22:53;;;;;;;1.73;1.17;;;;;;;26.30;43.88;99844.28;5132770;27;20205;-70
2022/07/12 06:25:20;;;;;;;1.20;1.20;;;;;;;26.38;44.42;99847.03;5132733;27;20797;-71
2022/07/12 06:27:48;;;;;;;1.57;1.47;;;;;;;26.37;43.21;99842.75;5132579;27;20198;-71
2022/07/12 06:30:18;;;;;;;1.27;1.27;;;;;;;26.55;44.05;99844.59;5132435;27;20194;-69
2022/07/12 06:32:46;;;;;;;1.20;1.20;;;;;;;26.57;45.12;99837.38;5131340;27;20202;-72
2022/07/12 06:35:13;;;;;;;1.47;1.00;;;;;;;26.40;43.94;99834.56;5123979;28;20292;-70
2022/07/12 06:37:40;;;;;;;1.10;1.10;;;;;;;26.39;43.01;99828.53;5118669;27;20726;-70
2022/07/12 06:40:08;;;;;;;2.67;0.80;;;;;;;26.45;42.69;99822.72;5132149;27;20214;-71
2022/07/12 06:42:35;;;;;;;1.10;1.00;;;;;;;26.44;43.71;99821.03;5132435;28;20201;-69
2022/07/12 06:45:03;;;;;;;1.40;1.30;;;;;;;26.56;43.67;99825.19;5121903;28;20640;-71
2022/07/12 06:47:31;;;;;;;1.67;1.27;;;;;;;26.42;42.98;99822.97;5121998;27;20226;-70
2022/07/12 06:49:58;;;;;;;2.20;1.00;;;;;;;26.47;43.32;99815.50;5126951;27;20245;-72
2022/07/12 06:52:24;;;;;;;1.20;1.20;;;;;;;26.50;42.24;99824.91;5126337;27;20567;-74
2022/07/12 06:54:51;;;;;;;1.00;0.90;;;;;;;26.52;43.94;99812.47;5125848;27;20209;-74
2022/07/12 06:57:18;;;;;;;2.70;1.10;;;;;;;26.60;42.30;99815.22;5137729;27;20201;-73
2022/07/12 06:59:45;;;;;;;1.60;1.10;;;;;;;26.82;42.39;99822.88;5123835;27;20217;-72
2022/07/12 07:02:12;;;;;;;1.03;1.03;;;;;;;27.13;43.00;99815.66;5135713;27;20284;-72
2022/07/12 07:04:40;;;;;;;1.13;0.83;;;;;;;27.27;41.04;99819.66;5130763;27;20661;-72
2022/07/12 07:07:07;;;;;;;2.17;1.00;;;;;;;27.31;40.84;99821.00;5126393;27;20696;-72
2022/07/12 07:09:34;;;;;;;1.13;1.07;;;;;;;27.47;41.95;99821.28;5128551;27;20663;-72
2022/07/12 07:12:01;;;;;;;1.00;1.00;;;;;;;27.46;41.72;99824.91;5128405;27;20202;-71
2022/07/12 07:14:29;;;;;;;2.10;1.37;;;;;;;27.51;42.05;99815.59;5137457;27;20635;-73
2022/07/12 07:16:56;;;;;;;0.97;0.97;;;;;;;27.80;42.10;99812.84;5137252;27;20205;-67
2022/07/12 07:19:26;;;;;;;0.93;0.87;;;;;;;27.78;39.91;99814.81;5126790;27;20218;-74
2022/07/12 07:21:55;;;;;;;9.70;1.40;;;;;;;27.98;41.47;99821.63;5130855;27;20290;-73
2022/07/12 07:24:23;;;;;;;2.20;0.93;;;;;;;28.29;40.48;99821.34;5128394;27;20210;-79
2022/07/12 07:26:51;;;;;;;3.27;0.90;;;;;;;28.29;36.19;99813.44;5129165;27;20194;-73
2022/07/12 07:32:03;;;;;;;0.63;0.63;;;;;;;28.59;34.65;99815.72;5128903;27;20208;-73
2022/07/12 07:34:31;;;;;;;0.80;0.80;;;;;;;28.49;34.26;99817.59;5125070;27;20281;-72
2022/07/12 07:36:59;;;;;;;1.27;0.97;;;;;;;28.61;33.52;99805.84;5131992;27;20213;-73
2022/07/12 07:39:27;;;;;;;1.73;0.77;;;;;;;28.60;32.74;99806.81;5134555;27;20662;-69
2022/07/12 07:41:54;;;;;;;0.93;0.90;;;;;;;28.65;32.06;99815.13;5132820;27;20206;-74
2022/07/12 07:44:21;;;;;;;0.60;0.60;;;;;;;28.79;34.06;99806.69;5125505;27;20200;-71
2022/07/12 07:46:48;;;;;;;2.47;0.60;;;;;;;28.72;32.88;99786.34;5133080;27;20200;-70
2022/07/12 07:49:15;;;;;;;0.83;0.83;;;;;;;28.81;31.09;99804.75;5129060;27;20584;-73
2022/07/12 07:51:42;;;;;;;1.13;0.90;;;;;;;28.97;34.31;99804.88;5129910;27;20281;-74
2022/07/12 07:54:10;;;;;;;1.23;0.97;;;;;;;29.14;31.56;99806.63;5127560;27;20198;-75
2022/07/12 07:56:37;;;;;;;1.17;0.80;;;;;;;29.10;32.69;99809.75;5134447;27;20209;-73
2022/07/12 07:59:04;;;;;;;0.70;0.70;;;;;;;29.19;31.41;99814.09;5130565;27;20221;-73
2022/07/12 08:04:12;;;;;;;1.70;0.90;;;;;;;29.16;36.37;99804.66;5124841;27;20281;-72
2022/07/12 08:06:39;;;;;;;0.73;0.73;;;;;;;29.15;33.19;99797.72;5128748;27;20696;-72
2022/07/12 08:09:06;;;;;;;1.70;1.27;;;;;;;29.27;31.33;99800.16;5128318;27;20202;-72
2022/07/12 08:11:36;;;;;;;1.40;0.80;;;;;;;29.23;31.65;99801.41;5128775;27;20209;-74
2022/07/12 08:14:04;;;;;;;1.17;0.80;;;;;;;29.27;33.09;99790.41;5126046;27;20206;-74
2022/07/12 08:16:31;;;;;;;0.57;0.57;;;;;;;29.49;32.54;99799.63;5122802;27;20252;-72
2022/07/12 08:18:58;;;;;;;0.85;0.70;;;;;;;29.46;31.44;99790.19;5131256;27;20222;-73
2022/07/12 08:21:25;;;;;;;2.27;0.87;;;;;;;29.31;31.07;99775.91;5130998;27;20202;-72
2022/07/12 08:23:53;;;;;;;1.48;0.90;;;;;;;29.28;32.62;99783.31;5125554;27;20792;-71
2022/07/12 08:26:20;;;;;;;0.70;0.70;;;;;;;29.51;31.80;99776.50;5132005;27;20274;-71
2022/07/12 08:28:48;;;;;;;1.98;1.17;;;;;;;29.55;31.33;99783.13;5133597;27;20202;-71
2022/07/12 08:31:15;;;;;;;0.60;0.60;;;;;;;29.62;32.93;99776.22;5133461;27;20240;-73
2022/07/12 08:33:42;;;;;;;0.50;0.50;;;;;;;29.81;33.15;99783.91;5132976;27;20197;-73
2022/07/12 08:36:10;;;;;;;0.93;0.88;;;;;;;29.99;31.33;99787.28;5122553;27;20202;-72
2022/07/12 08:38:37;;;;;;;0.85;0.82;;;;;;;30.06;32.16;99779.56;5123426;27;20693;-74
2022/07/12 08:41:05;;;;;;;0.65;0.65;;;;;;;29.88;31.42;99777.03;5125949;27;20202;-72
2022/07/12 08:43:35;;;;;;;0.80;0.80;;;;;;;29.91;31.36;99768.78;5125593;27;20279;-72
2022/07/12 08:46:07;;;;;;;0.80;0.70;;;;;;;29.97;30.02;99784.00;5131629;27;20190;-71
2022/07/12 08:48:34;;;;;;;0.88;0.70;;;;;;;29.97;29.71;99778.72;5130630;27;20795;-79
2022/07/12 08:51:03;;;;;;;0.60;0.60;;;;;;;29.90;32.23;99777.69;5129051;27;20207;-73
2022/07/12 08:53:30;;;;;;;0.60;0.60;;;;;;;30.00;30.69;99773.09;5130286;27;20300;-73
2022/07/12 08:55:57;;;;;;;0.88;0.88;;;;;;;29.89;30.17;99765.44;5131061;27;20665;-73
2022/07/12 08:58:24;;;;;;;0.88;0.88;;;;;;;30.02;31.14;99760.53;5126646;27;20198;-73
2022/07/12 09:00:51;;;;;;;1.25;0.80;;;;;;;30.17;31.09;99758.94;5130394;27;20666;-73
2022/07/12 09:03:20;;;;;;;0.80;0.77;;;;;;;30.20;31.01;99758.59;5127895;27;20259;-72
2022/07/12 09:05:52;;;;;;;0.68;0.68;;;;;;;30.30;33.62;99757.63;5126328;27;20674;-74
2022/07/12 09:08:24;;;;;;;1.45;0.70;;;;;;;30.29;35.48;99756.78;5128617;27;20250;-74
2022/07/12 09:10:56;;;;;;;2.60;0.70;;;;;;;30.48;32.85;99760.97;5128316;27;20198;-73
2022/07/12 09:13:47;;;;;;;0.60;0.60;;;;;;;30.45;28.64;99766.59;5122271;27;20685;-72
2022/07/12 09:16:15;;;;;;;0.80;0.80;;;;;;;30.30;28.49;99757.63;5129083;27;20575;-73
2022/07/12 09:18:43;;;;;;;1.02;1.02;;;;;;;30.39;30.62;99752.19;5130783;27;20240;-73
2022/07/12 09:21:10;;;;;;;1.08;0.80;;;;;;;30.32;30.55;99750.34;5126378;27;20202;-71
2022/07/12 09:23:37;;;;;;;0.60;0.60;;;;;;;30.18;29.84;99763.22;5131638;27;20198;-72
2022/07/12 09:26:09;;;;;;;0.60;0.60;;;;;;;29.92;32.31;99749.25;5126263;27;20248;-72
2022/07/12 09:28:36;;;;;;;0.60;0.60;;;;;;;29.97;29.16;99756.72;5127181;27;20198;-73
2022/07/12 09:31:02;;;;;;;0.90;0.80;;;;;;;30.07;30.84;99747.66;5127877;27;20210;-73
2022/07/12 09:36:17;;;;;;;0.63;0.63;;;;;;;30.17;30.74;99740.44;5119263;27;20263;-76
2022/07/12 09:38:53;;;;;;;1.23;1.23;;;;;;;30.16;29.25;99745.84;5127710;27;20202;-73
2022/07/12 09:41:21;;;;;;;0.75;0.60;;;;;;;30.08;29.16;99730.78;5122668;27;20202;-74
2022/07/12 09:43:49;;;;;;;0.60;0.60;;;;;;;29.93;30.32;99729.78;5122428;27;20210;-80
2022/07/12 09:46:16;;;;;;;0.60;0.60;;;;;;;29.83;30.73;99728.25;5130173;27;20654;-73
2022/07/12 09:48:44;;;;;;;1.27;0.68;;;;;;;29.93;31.43;99713.91;5125509;27;20221;-73
2022/07/12 09:51:16;;;;;;;0.73;0.73;;;;;;;29.89;31.60;99732.94;5127497;27;20654;-73
2022/07/12 09:53:45;;;;;;;0.63;0.63;;;;;;;29.49;29.53;99728.28;5131034;27;20254;-71
2022/07/12 09:56:13;;;;;;;2.15;1.95;;;;;;;29.45;30.99;99729.59;5123212;27;20636;-72
2022/07/12 09:58:44;;;;;;;3.75;0.77;;;;;;;29.48;31.45;99724.81;5120824;27;20621;-72
2022/07/12 10:01:12;;;;;;;1.50;0.90;;;;;;;29.45;31.72;99725.13;5132000;27;20201;-73
2022/07/12 10:03:41;;;;;;;0.70;0.70;;;;;;;29.62;32.84;99723.38;5131587;27;20190;-72
2022/07/12 10:06:09;;;;;;;0.93;0.70;;;;;;;29.51;33.97;99728.94;5122306;27;20251;-73
2022/07/12 10:08:38;;;;;;;0.75;0.75;;;;;;;29.46;29.99;99725.97;5128809;27;20726;-71
2022/07/12 10:11:06;;;;;;;1.30;0.80;;;;;;;29.67;30.20;99713.16;5121119;27;20190;-73
2022/07/12 10:13:34;;;;;;;0.68;0.68;;;;;;;29.76;32.33;99714.03;5118146;27;20208;-75
2022/07/12 10:16:03;;;;;;;2.03;0.50;;;;;;;29.90;30.00;99719.53;5124862;27;20220;-74
2022/07/12 10:18:30;;;;;;;0.60;0.60;;;;;;;29.91;30.64;99721.19;5132056;27;20194;-71
2022/07/12 10:20:57;;;;;;;1.17;0.60;;;;;;;29.88;32.59;99710.94;5121306;27;20217;-72
2022/07/12 10:23:34;;;;;;;1.80;1.00;;;;;;;29.95;33.99;99717.22;5124189;27;20198;-72
2022/07/12 10:26:25;;;;;;;2.15;0.70;;;;;;;29.74;29.05;99714.16;5127892;27;20246;-71
2022/07/12 10:29:01;;;;;;;0.95;0.95;;;;;;;29.80;31.29;99708.22;5128857;27;20202;-68
2022/07/12 10:31:31;;;;;;;1.90;0.90;;;;;;;29.87;33.84;99704.00;5125179;27;20194;-75
2022/07/12 10:34:12;;;;;;;0.77;0.77;;;;;;;29.87;33.56;99692.59;5118627;28;20202;-67
2022/07/12 10:37:13;;;;;;;1.20;1.10;;;;;;;29.82;33.79;99695.69;5120038;28;20574;-74
2022/07/12 10:39:40;;;;;;;1.10;0.88;;;;;;;29.88;30.94;99700.38;5124298;28;20209;-72
2022/07/12 10:42:18;;;;;;;0.80;0.80;;;;;;;29.87;31.98;99695.22;5121208;28;20201;-71
2022/07/12 10:44:47;;;;;;;1.20;1.10;;;;;;;29.86;31.00;99704.13;5126205;28;20695;-72
2022/07/12 10:47:17;;;;;;;0.70;0.70;;;;;;;29.90;30.59;99695.75;5125924;28;20222;-72
2022/07/12 10:49:47;;;;;;;2.67;1.05;;;;;;;30.00;32.46;99696.41;5124502;28;20574;-71
2022/07/12 10:52:23;;;;;;;1.45;0.80;;;;;;;30.10;31.58;99699.75;5128985;28;20279;-69
2022/07/12 10:55:17;;;;;;;0.68;0.68;;;;;;;30.23;30.95;99682.56;5131190;28;20220;-68
2022/07/12 10:57:50;;;;;;;0.70;0.65;;;;;;;30.23;30.04;99687.84;5126778;28;20194;-70
2022/07/12 11:00:17;;;;;;;0.93;0.93;;;;;;;30.07;32.27;99678.91;5131832;27;21762;-69
2022/07/12 11:02:44;;;;;;;1.83;0.85;;;;;;;29.96;30.44;99679.22;5132886;28;20330;-73
2022/07/12 11:05:11;;;;;;;1.00;0.80;;;;;;;29.84;31.70;99688.47;5126986;27;20228;-73
2022/07/12 11:07:39;;;;;;;4.30;0.98;;;;;;;29.87;31.15;99672.28;5125578;28;20206;-71
2022/07/12 11:10:07;;;;;;;5.53;0.90;;;;;;;30.00;32.61;99677.91;5132922;28;20198;-73
2022/07/12 11:12:34;;;;;;;0.90;0.90;;;;;;;30.03;31.50;99676.75;5132356;28;20201;-72
2022/07/12 11:15:05;;;;;;;1.15;0.90;;;;;;;29.97;31.63;99667.66;5117398;28;20198;-71
2022/07/12 11:17:33;;;;;;;0.85;0.80;;;;;;;29.77;31.85;99674.19;5116630;28;20194;-72
2022/07/12 11:20:09;;;;;;;0.90;0.80;;;;;;;29.74;34.46;99669.25;5123429;28;20218;-72
2022/07/12 11:22:37;;;;;;;0.75;0.75;;;;;;;29.79;33.59;99664.28;5111803;28;20244;-72
2022/07/12 11:25:04;;;;;;;1.10;0.70;;;;;;;29.80;31.64;99671.22;5127908;28;20198;-72
2022/07/12 11:27:31;;;;;;;1.13;0.88;;;;;;;29.92;30.38;99669.16;5132232;28;20585;-71
2022/07/12 11:29:59;;;;;;;1.23;0.88;;;;;;;29.91;30.94;99659.56;5127354;27;20192;-71
2022/07/12 11:32:36;;;;;;;0.88;0.88;;;;;;;29.95;32.51;99669.63;5121653;28;20277;-70
2022/07/12 11:35:04;;;;;;;0.80;0.80;;;;;;;30.04;33.59;99663.38;5122279;27;20697;-72
2022/07/12 11:37:31;;;;;;;0.68;0.68;;;;;;;29.94;34.29;99657.41;5118346;27;20211;-70
2022/07/12 11:39:58;;;;;;;4.43;0.80;;;;;;;29.96;31.45;99652.78;5128039;27;20221;-70
2022/07/12 11:42:25;;;;;;;1.10;0.70;;;;;;;29.90;31.77;99645.50;5128034;27;20281;-70
2022/07/12 11:44:52;;;;;;;1.92;1.05;;;;;;;29.85;32.15;99654.94;5122337;27;20213;-71
2022/07/12 11:47:20;;;;;;;0.80;0.60;;;;;;;29.82;31.25;99648.13;5123589;27;20638;-69
2022/07/12 11:49:54;;;;;;;1.25;0.90;;;;;;;29.91;33.88;99657.75;5132555;27;20191;-71